createdAt,value
2024-05-09T00:01:08.518Z,10.19
2024-05-09T00:03:44.523Z,10.15
2024-05-09T00:06:16.414Z,10.04
2024-05-09T00:08:46.456Z,10.05
2024-05-09T00:11:18.434Z,10.11
2024-05-09T00:13:48.199Z,10.17
2024-05-09T00:16:20.336Z,10.15
2024-05-09T00:18:53.261Z,10.14
2024-05-09T00:21:25.334Z,10.02
2024-05-09T00:23:55.136Z,9.95
2024-05-09T00:26:27.502Z,10.00
2024-05-09T00:28:57.233Z,9.82
2024-05-09T00:31:29.343Z,9.91
2024-05-09T00:34:02.321Z,9.88
2024-05-09T00:36:34.360Z,9.73
2024-05-09T00:39:04.284Z,9.84
2024-05-09T00:41:36.435Z,9.78
2024-05-09T00:44:06.217Z,9.88
2024-05-09T00:46:38.396Z,9.80
2024-05-09T00:49:12.315Z,9.75
2024-05-09T00:51:44.751Z,9.67
2024-05-09T00:54:15.388Z,9.73
2024-05-09T00:56:47.189Z,9.60
2024-05-09T00:59:17.466Z,9.57
2024-05-09T01:01:49.189Z,9.39
2024-05-09T01:04:22.232Z,9.37
2024-05-09T01:06:54.402Z,9.41
2024-05-09T01:09:24.242Z,9.45
2024-05-09T01:11:56.536Z,9.57
2024-05-09T01:14:26.239Z,9.48
2024-05-09T01:16:57.202Z,9.39
2024-05-09T01:19:32.781Z,9.44
2024-05-09T01:22:04.560Z,9.28
2024-05-09T01:24:37.441Z,9.29
2024-05-09T01:27:08.218Z,9.24
2024-05-09T01:29:39.426Z,9.23
2024-05-09T01:32:10.362Z,9.27
2024-05-09T01:34:41.438Z,9.19
2024-05-09T01:37:12.253Z,9.10
2024-05-09T01:39:45.307Z,9.33
2024-05-09T01:42:17.449Z,9.26
2024-05-09T01:44:47.633Z,9.35
2024-05-09T01:47:18.556Z,9.29
2024-05-09T01:49:48.274Z,9.23
2024-05-09T01:52:20.478Z,9.30
2024-05-09T01:54:53.269Z,9.12
2024-05-09T01:57:25.488Z,9.05
2024-05-09T01:59:56.265Z,9.13
2024-05-09T02:02:28.573Z,9.16
2024-05-09T02:04:58.381Z,8.97
2024-05-09T02:07:30.551Z,8.88
2024-05-09T02:10:06.582Z,8.90
2024-05-09T02:12:40.486Z,9.07
2024-05-09T02:15:11.307Z,8.96
2024-05-09T02:17:43.695Z,8.95
2024-05-09T02:20:22.549Z,9.04
2024-05-09T02:23:00.612Z,8.98
2024-05-09T02:25:33.341Z,8.94
2024-05-09T02:28:05.539Z,8.96
2024-05-09T02:30:40.295Z,8.90
2024-05-09T02:33:12.658Z,8.86
2024-05-09T02:35:44.552Z,8.77
2024-05-09T02:38:13.615Z,8.81
2024-05-09T02:40:46.552Z,8.77
2024-05-09T02:43:15.048Z,8.68
2024-05-09T02:45:45.549Z,8.66
2024-05-09T02:48:14.447Z,8.71
2024-05-09T02:50:44.936Z,8.66
2024-05-09T02:53:13.861Z,8.59
2024-05-09T02:55:47.625Z,8.69
2024-05-09T02:58:16.110Z,8.66
2024-05-09T03:00:46.646Z,8.66
2024-05-09T03:03:15.848Z,8.69
2024-05-09T03:05:46.994Z,8.52
2024-05-09T03:08:15.374Z,8.48
2024-05-09T03:10:48.588Z,8.52
2024-05-09T03:13:17.043Z,8.43
2024-05-09T03:15:47.613Z,8.36
2024-05-09T03:18:16.234Z,8.32
2024-05-09T03:20:46.601Z,8.35
2024-05-09T03:23:14.755Z,7.77
2024-05-09T03:25:47.592Z,7.41
2024-05-09T03:28:15.735Z,7.51
2024-05-09T03:30:46.607Z,7.19
2024-05-09T03:33:17.909Z,7.33
2024-05-09T03:35:51.608Z,7.49
2024-05-09T03:38:22.516Z,7.20
2024-05-09T03:40:56.638Z,6.77
2024-05-09T03:43:27.396Z,6.85
2024-05-09T03:45:58.608Z,6.74
2024-05-09T03:48:26.929Z,7.01
2024-05-09T03:50:57.646Z,7.14
2024-05-09T03:53:26.861Z,6.98
2024-05-09T03:56:00.779Z,7.12
2024-05-09T03:58:28.746Z,7.03
2024-05-09T04:00:59.793Z,6.84
2024-05-09T04:03:28.009Z,7.01
2024-05-09T04:05:58.618Z,7.10
2024-05-09T04:08:26.816Z,7.03
2024-05-09T04:10:59.678Z,6.97
2024-05-09T04:13:28.041Z,6.89
2024-05-09T04:15:58.662Z,6.94
2024-05-09T04:18:26.323Z,7.04
2024-05-09T04:20:56.800Z,7.14
2024-05-09T04:23:25.776Z,7.16
2024-05-09T04:25:55.592Z,7.45
2024-05-09T04:28:27.675Z,7.49
2024-05-09T04:30:57.446Z,7.52
2024-05-09T04:33:27.811Z,7.33
2024-05-09T04:35:57.484Z,8.00
2024-05-09T04:38:26.695Z,8.09
2024-05-09T04:40:56.512Z,8.12
2024-05-09T04:43:28.681Z,7.98
2024-05-09T04:45:58.481Z,7.94
2024-05-09T04:48:27.848Z,8.43
2024-05-09T04:50:58.509Z,8.36
2024-05-09T04:53:27.773Z,8.06
2024-05-09T04:55:57.546Z,8.62
2024-05-09T04:58:29.697Z,8.77
2024-05-09T05:00:59.551Z,8.93
2024-05-09T05:03:27.942Z,8.51
2024-05-09T05:05:58.046Z,8.94
2024-05-09T05:08:26.777Z,9.05
2024-05-09T05:10:57.058Z,9.22
2024-05-09T05:13:25.721Z,9.27
2024-05-09T05:15:58.801Z,9.36
2024-05-09T05:18:28.876Z,9.48
2024-05-09T05:20:59.802Z,9.54
2024-05-09T05:23:30.788Z,9.66
2024-05-09T05:25:58.274Z,9.70
2024-05-09T05:28:28.731Z,9.69
2024-05-09T05:30:58.883Z,9.78
2024-05-09T05:33:30.989Z,9.69
2024-05-09T05:35:58.137Z,9.87
2024-05-09T05:38:28.893Z,9.90
2024-05-09T05:40:56.958Z,9.95
2024-05-09T05:43:27.590Z,9.88
2024-05-09T05:45:59.776Z,10.03
2024-05-09T05:48:29.678Z,10.10
2024-05-09T05:51:00.424Z,10.21
2024-05-09T05:53:31.592Z,10.30
2024-05-09T05:56:00.809Z,10.40
2024-05-09T05:58:30.610Z,10.35
2024-05-09T06:01:02.828Z,10.38
2024-05-09T06:03:32.792Z,10.37
2024-05-09T06:06:04.015Z,10.37
2024-05-09T06:08:34.619Z,10.45
2024-05-09T06:11:03.998Z,10.66
2024-05-09T06:13:34.581Z,10.72
2024-05-09T06:16:06.780Z,10.75
2024-05-09T06:18:36.722Z,10.66
2024-05-09T06:21:05.852Z,10.67
2024-05-09T06:23:36.788Z,10.72
2024-05-09T06:26:05.850Z,10.78
2024-05-09T06:28:35.570Z,10.94
2024-05-09T06:31:07.831Z,10.95
2024-05-09T06:33:37.767Z,11.12
2024-05-09T06:36:06.819Z,11.21
2024-05-09T06:38:37.959Z,11.29
2024-05-09T06:41:06.902Z,11.37
2024-05-09T06:43:37.393Z,11.24
2024-05-09T06:46:08.845Z,11.48
2024-05-09T06:48:38.734Z,11.63
2024-05-09T06:51:07.944Z,11.71
2024-05-09T06:53:37.742Z,11.90
2024-05-09T06:56:07.894Z,11.96
2024-05-09T06:58:37.673Z,12.02
2024-05-09T07:01:09.882Z,12.05
2024-05-09T07:03:39.761Z,12.11
2024-05-09T07:06:08.375Z,12.14
2024-05-09T07:08:38.955Z,12.41
2024-05-09T07:11:07.483Z,12.48
2024-05-09T07:13:37.946Z,12.49
2024-05-09T07:16:09.193Z,12.55
2024-05-09T07:18:40.056Z,12.42
2024-05-09T07:21:08.982Z,12.58
2024-05-09T07:23:38.808Z,12.62
2024-05-09T07:26:07.912Z,13.18
2024-05-09T07:28:37.714Z,13.09
2024-05-09T07:31:09.918Z,13.21
2024-05-09T07:33:39.828Z,13.20
2024-05-09T07:36:08.972Z,13.27
2024-05-09T07:38:38.826Z,13.30
2024-05-09T07:41:07.982Z,13.44
2024-05-09T07:43:37.700Z,13.72
2024-05-09T07:47:13.937Z,13.71
2024-05-09T07:50:35.874Z,13.67
2024-05-09T07:53:20.427Z,13.85
2024-05-09T07:54:39.796Z,13.81
2024-05-09T07:57:08.969Z,13.87
2024-05-09T07:59:38.729Z,13.96
2024-05-09T08:02:10.090Z,14.24
2024-05-09T08:04:40.171Z,14.32
2024-05-09T08:07:09.087Z,14.35
2024-05-09T08:09:39.815Z,14.60
2024-05-09T08:12:09.959Z,14.35
2024-05-09T08:14:41.107Z,14.66
2024-05-09T08:17:12.976Z,14.76
2024-05-09T08:19:43.348Z,15.06
2024-05-09T08:22:14.081Z,14.83
2024-05-09T08:24:42.168Z,15.33
2024-05-09T08:27:13.027Z,15.73
2024-05-09T08:29:40.568Z,15.34
2024-05-09T08:32:15.097Z,15.18
2024-05-09T08:34:44.670Z,15.51
2024-05-09T08:37:22.131Z,15.57
2024-05-09T08:39:51.523Z,15.36
2024-05-09T08:42:22.019Z,15.39
2024-05-09T08:44:50.134Z,15.76
2024-05-09T08:47:24.126Z,16.10
2024-05-09T08:49:58.230Z,16.31
2024-05-09T08:52:30.010Z,16.24
2024-05-09T08:54:57.179Z,16.28
2024-05-09T08:57:30.068Z,15.97
2024-05-09T09:00:04.821Z,15.73
2024-05-09T09:02:41.161Z,15.91
2024-05-09T09:05:11.359Z,15.44
2024-05-09T09:07:42.555Z,16.02
2024-05-09T09:10:17.682Z,16.33
2024-05-09T09:12:58.745Z,16.23
2024-05-09T09:15:27.180Z,16.42
2024-05-09T09:18:02.312Z,16.35
2024-05-09T09:20:36.420Z,16.61
2024-05-09T09:23:09.054Z,16.72
2024-05-09T09:25:40.287Z,16.74
2024-05-09T09:28:13.104Z,16.88
2024-05-09T09:30:41.322Z,16.60
2024-05-09T09:33:16.238Z,16.91
2024-05-09T09:35:44.212Z,16.92
2024-05-09T09:38:21.084Z,16.86
2024-05-09T09:40:50.566Z,17.11
2024-05-09T09:43:23.085Z,17.26
2024-05-09T09:45:53.744Z,17.12
2024-05-09T09:48:28.627Z,16.75
2024-05-09T09:50:58.095Z,16.79
2024-05-09T09:53:30.571Z,16.70
2024-05-09T09:56:00.107Z,16.45
2024-05-09T09:58:31.380Z,17.01
2024-05-09T10:01:00.263Z,17.31
2024-05-09T10:03:33.966Z,17.07
2024-05-09T10:06:04.145Z,17.34
2024-05-09T10:08:34.352Z,17.28
2024-05-09T10:11:05.212Z,17.40
2024-05-09T10:13:36.424Z,17.62
2024-05-09T10:16:09.243Z,18.17
2024-05-09T10:18:42.981Z,18.10
2024-05-09T10:21:18.147Z,17.01
2024-05-09T10:23:59.703Z,16.88
2024-05-09T10:26:35.175Z,17.49
2024-05-09T10:29:13.957Z,17.27
2024-05-09T10:31:44.286Z,16.86
2024-05-09T10:34:22.809Z,17.07
2024-05-09T10:36:56.273Z,16.83
2024-05-09T10:39:27.951Z,17.04
2024-05-09T10:41:57.163Z,18.00
2024-05-09T10:44:27.401Z,18.28
2024-05-09T10:46:56.318Z,18.14
2024-05-09T10:49:29.119Z,18.81
2024-05-09T10:51:58.311Z,18.78
2024-05-09T10:54:38.145Z,18.49
2024-05-09T10:57:08.182Z,18.61
2024-05-09T10:59:39.688Z,18.96
2024-05-09T11:02:08.506Z,18.94
2024-05-09T11:04:42.144Z,19.32
2024-05-09T11:07:15.291Z,19.60
2024-05-09T11:09:45.974Z,20.63
2024-05-09T11:12:15.294Z,19.89
2024-05-09T11:14:55.488Z,19.04
2024-05-09T11:17:25.356Z,17.79
2024-05-09T11:19:58.005Z,17.90
2024-05-09T11:22:33.219Z,17.80
2024-05-09T11:25:04.430Z,17.78
2024-05-09T11:27:32.387Z,18.06
2024-05-09T11:30:04.326Z,18.50
2024-05-09T11:32:32.804Z,18.92
2024-05-09T11:35:07.222Z,19.13
2024-05-09T11:37:37.156Z,19.73
2024-05-09T11:40:13.909Z,20.27
2024-05-09T11:42:52.460Z,19.86
2024-05-09T11:45:23.250Z,18.84
2024-05-09T11:47:51.971Z,19.36
2024-05-09T11:50:29.988Z,19.01
2024-05-09T11:53:02.842Z,19.89
2024-05-09T11:55:36.362Z,19.55
2024-05-09T11:58:05.498Z,19.46
2024-05-09T12:00:37.543Z,20.13
2024-05-09T12:03:06.549Z,21.00
2024-05-09T12:05:39.537Z,20.59
2024-05-09T12:08:08.410Z,20.16
2024-05-09T12:10:39.485Z,20.39
2024-05-09T12:13:07.870Z,20.91
2024-05-09T12:15:39.453Z,21.50
2024-05-09T12:18:08.316Z,21.11
2024-05-09T12:20:41.323Z,21.11
2024-05-09T12:23:10.491Z,21.39
2024-05-09T12:25:41.295Z,21.45
2024-05-09T12:28:09.550Z,21.60
2024-05-09T12:30:41.535Z,21.48
2024-05-09T12:33:12.485Z,21.93
2024-05-09T12:35:48.172Z,23.09
2024-05-09T12:38:18.454Z,22.42
2024-05-09T12:40:49.386Z,23.16
2024-05-09T12:43:17.542Z,22.79
2024-05-09T12:45:48.464Z,23.63
2024-05-09T12:50:49.588Z,22.64
2024-05-09T12:53:17.489Z,23.01
2024-05-09T12:55:56.741Z,22.88
2024-05-09T12:58:28.490Z,23.46
2024-05-09T13:00:59.519Z,23.11
2024-05-09T13:03:27.528Z,23.58
2024-05-09T13:06:01.346Z,24.36
2024-05-09T13:08:29.524Z,24.79
2024-05-09T13:10:59.755Z,24.73
2024-05-09T13:13:29.355Z,25.36
2024-05-09T13:15:59.680Z,24.60
2024-05-09T13:18:27.777Z,24.13
2024-05-09T13:21:00.381Z,23.40
2024-05-09T13:23:28.518Z,23.12
2024-05-09T13:25:59.452Z,24.27
2024-05-09T13:28:27.693Z,25.65
2024-05-09T13:30:58.469Z,25.47
2024-05-09T13:33:26.623Z,26.28
2024-05-09T13:35:57.485Z,25.60
2024-05-09T13:38:28.768Z,25.63
2024-05-09T13:40:59.549Z,22.87
2024-05-09T13:43:27.695Z,23.33
2024-05-09T13:45:57.890Z,25.02
2024-05-09T13:48:26.534Z,26.16
2024-05-09T13:50:56.599Z,26.54
2024-05-09T13:53:25.444Z,22.95
2024-05-09T13:55:58.207Z,25.29
2024-05-09T13:58:27.455Z,25.54
2024-05-09T14:00:58.322Z,25.24
2024-05-09T14:03:30.710Z,24.72
2024-05-09T14:06:00.682Z,25.14
2024-05-09T14:08:30.462Z,24.54
2024-05-09T14:11:03.345Z,23.46
2024-05-09T14:13:32.461Z,25.28
2024-05-09T14:16:02.687Z,24.84
2024-05-09T14:18:30.567Z,25.19
2024-05-09T14:21:00.555Z,25.93
2024-05-09T14:23:29.479Z,24.34
2024-05-09T14:25:59.617Z,25.12
2024-05-09T14:28:31.557Z,24.61
2024-05-09T14:31:01.641Z,23.89
2024-05-09T14:33:31.670Z,23.39
2024-05-09T14:36:01.688Z,24.10
2024-05-09T14:38:30.503Z,24.58
2024-05-09T14:41:00.857Z,24.59
2024-05-09T14:43:32.613Z,24.04
2024-05-09T14:46:02.740Z,24.17
2024-05-09T14:48:30.768Z,23.94
2024-05-09T14:51:00.519Z,23.39
2024-05-09T14:53:28.976Z,24.17
2024-05-09T14:55:59.558Z,23.66
2024-05-09T14:58:30.786Z,23.46
2024-05-09T15:01:00.711Z,24.12
2024-05-09T15:03:29.085Z,25.35
2024-05-09T15:05:59.600Z,23.93
2024-05-09T15:08:28.110Z,24.84
2024-05-09T15:10:58.546Z,22.87
2024-05-09T15:13:27.729Z,22.77
2024-05-09T15:16:00.402Z,21.42
2024-05-09T15:18:29.770Z,22.10
2024-05-09T15:20:59.687Z,22.52
2024-05-09T15:23:28.048Z,24.14
2024-05-09T15:25:58.586Z,24.58
2024-05-09T15:28:27.171Z,25.01
2024-05-09T15:30:57.405Z,24.74
2024-05-09T15:33:29.725Z,24.21
2024-05-09T15:35:59.365Z,23.30
2024-05-09T15:38:28.606Z,23.01
2024-05-09T15:40:58.406Z,22.63
2024-05-09T15:43:28.771Z,22.79
2024-05-09T15:45:58.396Z,22.63
2024-05-09T15:48:29.740Z,22.38
2024-05-09T15:50:59.731Z,21.76
2024-05-09T15:53:29.119Z,20.91
2024-05-09T15:55:59.378Z,20.68
2024-05-09T15:58:27.723Z,20.78
2024-05-09T16:00:57.898Z,20.63
2024-05-09T16:03:26.735Z,20.48
2024-05-09T16:05:59.513Z,20.06
2024-05-09T16:08:27.764Z,20.35
2024-05-09T16:10:58.835Z,20.22
2024-05-09T16:13:26.871Z,20.28
2024-05-09T16:15:56.780Z,20.21
2024-05-09T16:18:25.728Z,20.42
2024-05-09T16:21:00.070Z,20.17
2024-05-09T16:23:31.682Z,20.25
2024-05-09T16:26:01.822Z,20.55
2024-05-09T16:28:30.805Z,20.39
2024-05-09T16:31:01.545Z,20.54
2024-05-09T16:33:30.960Z,20.50
2024-05-09T16:36:00.893Z,20.31
2024-05-09T16:38:31.688Z,20.16
2024-05-09T16:41:01.518Z,19.76
2024-05-09T16:43:30.690Z,19.95
2024-05-09T16:46:00.504Z,19.81
2024-05-09T16:48:30.773Z,19.64
2024-05-09T16:51:00.482Z,19.69
2024-05-09T16:53:32.698Z,19.78
2024-05-09T16:56:02.500Z,19.71
2024-05-09T16:58:31.732Z,19.91
2024-05-09T17:01:01.629Z,20.22
2024-05-09T17:03:30.252Z,20.37
2024-05-09T17:06:03.751Z,20.24
2024-05-09T17:08:36.947Z,20.19
2024-05-09T17:11:07.797Z,20.20
2024-05-09T17:13:39.349Z,20.26
2024-05-09T17:16:11.762Z,20.25
2024-05-09T17:18:40.344Z,20.33
2024-05-09T17:21:11.736Z,20.24
2024-05-09T17:23:42.935Z,20.18
2024-05-09T17:26:13.763Z,20.29
2024-05-09T17:28:41.908Z,19.99
2024-05-09T17:31:12.794Z,19.70
2024-05-09T17:33:42.473Z,19.72
2024-05-09T17:36:13.769Z,19.94
2024-05-09T17:38:45.279Z,19.88
2024-05-09T17:41:15.790Z,19.33
2024-05-09T17:43:43.905Z,19.17
2024-05-09T17:46:14.800Z,19.24
2024-05-09T17:48:43.320Z,18.97
2024-05-09T17:51:13.767Z,18.47
2024-05-09T17:53:44.922Z,18.21
2024-05-09T17:56:14.803Z,18.46
2024-05-09T17:58:43.422Z,18.08
2024-05-09T18:01:14.955Z,17.86
2024-05-09T18:03:43.729Z,17.61
2024-05-09T18:06:13.797Z,17.60
2024-05-09T18:08:42.156Z,17.66
2024-05-09T18:11:14.927Z,17.61
2024-05-09T18:13:43.129Z,17.09
2024-05-09T18:16:13.948Z,16.81
2024-05-09T18:18:42.499Z,16.48
2024-05-09T18:21:12.873Z,16.72
2024-05-09T18:23:41.678Z,16.87
2024-05-09T18:26:14.839Z,17.11
2024-05-09T18:28:43.418Z,16.64
2024-05-09T18:31:13.870Z,16.36
2024-05-09T18:33:42.472Z,16.06
2024-05-09T18:36:13.854Z,15.56
2024-05-09T18:38:44.955Z,16.15
2024-05-09T18:41:15.883Z,16.38
2024-05-09T18:43:50.364Z,16.26
2024-05-09T18:46:18.942Z,15.68
2024-05-09T18:48:50.142Z,15.79
2024-05-09T18:51:18.460Z,15.87
2024-05-09T18:53:49.885Z,14.65
2024-05-09T18:56:20.144Z,14.24
2024-05-09T18:58:51.063Z,14.38
2024-05-09T19:01:18.977Z,14.41
2024-05-09T19:03:50.823Z,14.30
2024-05-09T19:06:22.773Z,14.00
2024-05-09T19:08:55.105Z,13.88
2024-05-09T19:11:25.060Z,14.00
2024-05-09T19:13:57.003Z,13.92
2024-05-09T19:16:24.194Z,13.84
2024-05-09T19:18:57.462Z,13.92
2024-05-09T19:21:25.050Z,13.89
2024-05-09T19:23:55.917Z,13.41
2024-05-09T19:26:26.308Z,13.64
2024-05-09T19:28:56.984Z,13.44
2024-05-09T19:31:27.251Z,13.41
2024-05-09T19:33:55.111Z,13.49
2024-05-09T19:36:25.949Z,13.76
2024-05-09T19:38:53.604Z,13.44
2024-05-09T19:41:23.889Z,14.00
2024-05-09T19:43:55.938Z,14.11
2024-05-09T19:46:26.228Z,13.95
2024-05-09T19:48:55.197Z,13.76
2024-05-09T19:51:25.754Z,13.67
2024-05-09T19:53:55.979Z,13.26
2024-05-09T19:56:26.311Z,13.35
2024-05-09T19:58:57.982Z,12.95
2024-05-09T20:01:27.893Z,13.41
2024-05-09T20:03:59.214Z,13.02
2024-05-09T20:06:30.714Z,13.52
2024-05-09T20:08:59.679Z,13.26
2024-05-09T20:11:33.307Z,13.31
2024-05-09T20:14:04.189Z,12.88
2024-05-09T20:16:33.888Z,13.41
2024-05-09T20:19:03.103Z,13.70
2024-05-09T20:21:32.809Z,13.69
2024-05-09T20:24:01.112Z,13.78
2024-05-09T20:26:31.208Z,13.74
2024-05-09T20:28:59.993Z,13.41
2024-05-09T20:31:32.882Z,13.55
2024-05-09T20:34:02.047Z,13.27
2024-05-09T20:36:32.193Z,13.25
2024-05-09T20:39:01.030Z,13.58
2024-05-09T20:41:32.035Z,13.54
2024-05-09T20:44:04.048Z,13.43
2024-05-09T20:46:36.825Z,13.15
2024-05-09T20:49:06.180Z,12.69
2024-05-09T20:51:36.226Z,12.89
2024-05-09T20:54:05.054Z,12.78
2024-05-09T20:56:35.175Z,12.96
2024-05-09T20:59:04.066Z,12.71
2024-05-09T21:01:37.080Z,12.42
2024-05-09T21:04:06.322Z,12.02
2024-05-09T21:06:36.206Z,11.79
2024-05-09T21:09:05.055Z,11.98
2024-05-09T21:11:35.263Z,11.74
2024-05-09T21:14:04.066Z,11.48
2024-05-09T21:16:38.410Z,11.45
2024-05-09T21:19:06.112Z,11.58
2024-05-09T21:21:41.904Z,11.61
2024-05-09T21:24:10.070Z,11.47
2024-05-09T21:26:40.224Z,11.42
2024-05-09T21:29:08.226Z,10.94
2024-05-09T21:31:41.114Z,10.72
2024-05-09T21:34:09.467Z,10.57
2024-05-09T21:36:40.127Z,10.61
2024-05-09T21:39:09.244Z,11.41
2024-05-09T21:41:39.275Z,11.15
2024-05-09T21:44:08.098Z,10.33
2024-05-09T21:46:40.913Z,9.96
2024-05-09T21:49:09.303Z,9.89
2024-05-09T21:51:40.138Z,9.84
2024-05-09T21:54:08.253Z,9.91
2024-05-09T21:56:39.125Z,9.82
2024-05-09T21:59:07.263Z,9.52
2024-05-09T22:01:40.236Z,9.59
2024-05-09T22:04:08.335Z,10.41
2024-05-09T22:06:39.135Z,10.80
2024-05-09T22:09:07.289Z,11.04
2024-05-09T22:11:38.193Z,9.71
2024-05-09T22:14:06.282Z,9.36
2024-05-09T22:16:36.247Z,9.46
2024-05-09T22:19:07.684Z,9.50
2024-05-09T22:21:38.112Z,9.27
2024-05-09T22:24:07.163Z,9.25
2024-05-09T22:26:39.958Z,9.22
2024-05-09T22:29:09.169Z,9.17
2024-05-09T22:31:38.956Z,9.11
2024-05-09T22:34:11.272Z,9.22
2024-05-09T22:36:40.959Z,9.03
2024-05-09T22:39:10.179Z,9.19
2024-05-09T22:41:40.020Z,9.23
2024-05-09T22:44:09.197Z,9.12
2024-05-09T22:46:39.012Z,9.18
2024-05-09T22:49:11.490Z,9.29
2024-05-09T22:51:41.989Z,9.34
2024-05-09T22:54:10.709Z,9.36
2024-05-09T22:56:41.207Z,9.47
2024-05-09T22:59:09.795Z,9.53
2024-05-09T23:01:40.273Z,9.43
2024-05-09T23:04:11.446Z,9.37
2024-05-09T23:06:44.036Z,9.32
2024-05-09T23:09:13.226Z,9.41
2024-05-09T23:11:45.743Z,9.39
2024-05-09T23:14:14.225Z,9.38
2024-05-09T23:16:45.059Z,9.38
2024-05-09T23:19:16.378Z,9.23
2024-05-09T23:21:46.289Z,9.22
2024-05-09T23:24:14.743Z,9.15
2024-05-09T23:26:46.248Z,9.13
2024-05-09T23:29:14.789Z,9.19
2024-05-09T23:31:45.273Z,9.13
2024-05-09T23:34:17.385Z,9.00
2024-05-09T23:36:48.306Z,9.14
2024-05-09T23:39:18.514Z,9.28
2024-05-09T23:41:49.266Z,9.38
2024-05-09T23:44:17.774Z,9.39
2024-05-09T23:46:48.097Z,9.53
2024-05-09T23:49:20.294Z,9.64
2024-05-09T23:51:50.086Z,9.61
2024-05-09T23:54:19.281Z,10.23
2024-05-09T23:56:49.066Z,10.02
2024-05-09T23:59:19.289Z,9.69
